sensor_id;sensor_type;location;lat;lon;timestamp;temperature;humidity
49236;DHT22;35067;48.134;8.378;2022-12-18T00:00:09;-7.70;99.90
49236;DHT22;35067;48.134;8.378;2022-12-18T00:02:10;-7.60;99.90
49236;DHT22;35067;48.134;8.378;2022-12-18T00:04:20;-7.70;99.90
49236;DHT22;35067;48.134;8.378;2022-12-18T00:06:24;-7.50;99.90
49236;DHT22;35067;48.134;8.378;2022-12-18T00:08:26;-7.60;99.90
49236;DHT22;35067;48.134;8.378;2022-12-18T00:10:28;-7.80;99.90
49236;DHT22;35067;48.134;8.378;2022-12-18T00:12:29;-7.80;99.90
49236;DHT22;35067;48.134;8.378;2022-12-18T00:14:29;-7.80;99.90
49236;DHT22;35067;48.134;8.378;2022-12-18T00:16:30;-7.80;99.90
49236;DHT22;35067;48.134;8.378;2022-12-18T00:18:33;-7.80;99.90
49236;DHT22;35067;48.134;8.378;2022-12-18T00:20:39;-7.80;99.90
49236;DHT22;35067;48.134;8.378;2022-12-18T00:22:40;-7.90;99.90
49236;DHT22;35067;48.134;8.378;2022-12-18T00:24:40;-7.90;99.90
49236;DHT22;35067;48.134;8.378;2022-12-18T00:26:41;-7.70;99.90
49236;DHT22;35067;48.134;8.378;2022-12-18T00:28:43;-7.60;99.90
49236;DHT22;35067;48.134;8.378;2022-12-18T00:30:44;-7.60;99.90
49236;DHT22;35067;48.134;8.378;2022-12-18T00:32:45;-7.60;99.90
49236;DHT22;35067;48.134;8.378;2022-12-18T00:34:46;-7.60;99.90
49236;DHT22;35067;48.134;8.378;2022-12-18T00:36:47;-7.50;99.90
49236;DHT22;35067;48.134;8.378;2022-12-18T00:38:49;-7.50;99.90
49236;DHT22;35067;48.134;8.378;2022-12-18T00:40:49;-7.50;99.90
49236;DHT22;35067;48.134;8.378;2022-12-18T00:42:50;-7.60;99.90
49236;DHT22;35067;48.134;8.378;2022-12-18T00:44:57;-7.60;99.90
49236;DHT22;35067;48.134;8.378;2022-12-18T00:46:58;-7.60;99.90
49236;DHT22;35067;48.134;8.378;2022-12-18T00:48:59;-7.60;99.90
49236;DHT22;35067;48.134;8.378;2022-12-18T00:51:00;-7.60;99.90
49236;DHT22;35067;48.134;8.378;2022-12-18T00:53:00;-7.60;99.90
49236;DHT22;35067;48.134;8.378;2022-12-18T00:55:01;-7.60;99.90
49236;DHT22;35067;48.134;8.378;2022-12-18T00:57:02;-7.50;99.90
49236;DHT22;35067;48.134;8.378;2022-12-18T00:59:03;-7.50;99.90
49236;DHT22;35067;48.134;8.378;2022-12-18T01:01:05;-7.30;99.90
49236;DHT22;35067;48.134;8.378;2022-12-18T01:03:06;-7.40;99.90
49236;DHT22;35067;48.134;8.378;2022-12-18T01:05:08;-7.40;99.90
49236;DHT22;35067;48.134;8.378;2022-12-18T01:07:10;-7.50;99.90
49236;DHT22;35067;48.134;8.378;2022-12-18T01:09:10;-7.40;99.90
49236;DHT22;35067;48.134;8.378;2022-12-18T01:11:17;-7.50;99.90
49236;DHT22;35067;48.134;8.378;2022-12-18T01:13:19;-7.40;99.90
49236;DHT22;35067;48.134;8.378;2022-12-18T01:15:20;-7.30;99.90
49236;DHT22;35067;48.134;8.378;2022-12-18T01:17:21;-7.20;99.90
49236;DHT22;35067;48.134;8.378;2022-12-18T01:19:22;-7.10;99.90
49236;DHT22;35067;48.134;8.378;2022-12-18T01:21:24;-7.00;99.90
49236;DHT22;35067;48.134;8.378;2022-12-18T01:23:25;-6.90;99.90
49236;DHT22;35067;48.134;8.378;2022-12-18T01:25:25;-6.90;99.90
49236;DHT22;35067;48.134;8.378;2022-12-18T01:27:26;-7.00;99.90
49236;DHT22;35067;48.134;8.378;2022-12-18T01:29:26;-6.90;99.90
49236;DHT22;35067;48.134;8.378;2022-12-18T01:31:29;-6.90;99.90
49236;DHT22;35067;48.134;8.378;2022-12-18T01:33:31;-6.80;99.90
49236;DHT22;35067;48.134;8.378;2022-12-18T01:35:32;-6.80;99.90
49236;DHT22;35067;48.134;8.378;2022-12-18T01:37:33;-6.70;99.90
49236;DHT22;35067;48.134;8.378;2022-12-18T01:39:33;-6.70;99.90
49236;DHT22;35067;48.134;8.378;2022-12-18T01:41:35;-6.70;99.90
49236;DHT22;35067;48.134;8.378;2022-12-18T01:43:56;-6.70;99.90
49236;DHT22;35067;48.134;8.378;2022-12-18T01:45:59;-6.70;99.90
49236;DHT22;35067;48.134;8.378;2022-12-18T01:48:06;-6.70;99.90
49236;DHT22;35067;48.134;8.378;2022-12-18T01:52:16;-6.50;99.90
49236;DHT22;35067;48.134;8.378;2022-12-18T01:54:18;-6.50;99.90
49236;DHT22;35067;48.134;8.378;2022-12-18T01:56:19;-6.50;99.90
49236;DHT22;35067;48.134;8.378;2022-12-18T01:58:35;-6.60;99.90
49236;DHT22;35067;48.134;8.378;2022-12-18T02:00:55;-6.60;99.90
49236;DHT22;35067;48.134;8.378;2022-12-18T02:02:56;-6.60;99.90
49236;DHT22;35067;48.134;8.378;2022-12-18T02:04:57;-6.50;99.90
49236;DHT22;35067;48.134;8.378;2022-12-18T02:07:25;-6.50;99.90
49236;DHT22;35067;48.134;8.378;2022-12-18T02:12:28;-6.40;99.90
49236;DHT22;35067;48.134;8.378;2022-12-18T02:14:49;-6.40;99.90
49236;DHT22;35067;48.134;8.378;2022-12-18T02:17:22;-6.50;99.90
49236;DHT22;35067;48.134;8.378;2022-12-18T02:22:09;-6.60;99.90
49236;DHT22;35067;48.134;8.378;2022-12-18T02:24:43;-6.60;99.90
49236;DHT22;35067;48.134;8.378;2022-12-18T02:26:50;-6.50;99.90
49236;DHT22;35067;48.134;8.378;2022-12-18T02:29:10;-6.60;99.90
49236;DHT22;35067;48.134;8.378;2022-12-18T02:31:19;-6.60;99.90
49236;DHT22;35067;48.134;8.378;2022-12-18T02:33:30;-6.60;99.90
49236;DHT22;35067;48.134;8.378;2022-12-18T02:35:33;-6.70;99.90
49236;DHT22;35067;48.134;8.378;2022-12-18T02:37:35;-6.60;99.90
49236;DHT22;35067;48.134;8.378;2022-12-18T02:39:40;-6.50;99.90
49236;DHT22;35067;48.134;8.378;2022-12-18T02:41:42;-6.60;99.90
49236;DHT22;35067;48.134;8.378;2022-12-18T02:43:47;-6.50;99.90
49236;DHT22;35067;48.134;8.378;2022-12-18T02:45:55;-6.60;99.90
49236;DHT22;35067;48.134;8.378;2022-12-18T02:47:57;-6.60;99.90
49236;DHT22;35067;48.134;8.378;2022-12-18T02:50:02;-6.60;99.90
49236;DHT22;35067;48.134;8.378;2022-12-18T02:52:17;-6.60;99.90
49236;DHT22;35067;48.134;8.378;2022-12-18T02:54:38;-6.60;99.90
49236;DHT22;35067;48.134;8.378;2022-12-18T02:56:54;-6.40;99.90
49236;DHT22;35067;48.134;8.378;2022-12-18T02:59:08;-6.40;99.90
49236;DHT22;35067;48.134;8.378;2022-12-18T03:01:15;-6.30;99.90
49236;DHT22;35067;48.134;8.378;2022-12-18T03:03:31;-6.40;99.90
49236;DHT22;35067;48.134;8.378;2022-12-18T03:05:43;-6.30;99.90
49236;DHT22;35067;48.134;8.378;2022-12-18T03:07:53;-6.40;99.90
49236;DHT22;35067;48.134;8.378;2022-12-18T03:10:20;-6.40;99.90
49236;DHT22;35067;48.134;8.378;2022-12-18T03:12:31;-6.40;99.90
49236;DHT22;35067;48.134;8.378;2022-12-18T03:14:34;-6.40;99.90
49236;DHT22;35067;48.134;8.378;2022-12-18T03:16:36;-6.50;99.90
49236;DHT22;35067;48.134;8.378;2022-12-18T03:18:45;-6.60;99.90
49236;DHT22;35067;48.134;8.378;2022-12-18T03:20:49;-6.50;99.90
49236;DHT22;35067;48.134;8.378;2022-12-18T03:22:55;-6.40;99.90
49236;DHT22;35067;48.134;8.378;2022-12-18T03:25:01;-6.50;99.90
49236;DHT22;35067;48.134;8.378;2022-12-18T03:27:08;-6.50;99.90
49236;DHT22;35067;48.134;8.378;2022-12-18T03:29:21;-6.50;99.90
49236;DHT22;35067;48.134;8.378;2022-12-18T03:31:26;-6.50;99.90
49236;DHT22;35067;48.134;8.378;2022-12-18T03:33:44;-6.50;99.90
49236;DHT22;35067;48.134;8.378;2022-12-18T03:35:47;-6.50;99.90
49236;DHT22;35067;48.134;8.378;2022-12-18T03:37:48;-6.60;99.90
49236;DHT22;35067;48.134;8.378;2022-12-18T03:39:48;-6.50;99.90
49236;DHT22;35067;48.134;8.378;2022-12-18T03:42:24;-6.50;99.90
49236;DHT22;35067;48.134;8.378;2022-12-18T03:44:57;-6.70;99.90
49236;DHT22;35067;48.134;8.378;2022-12-18T03:47:12;-6.70;99.90
49236;DHT22;35067;48.134;8.378;2022-12-18T03:49:24;-6.70;99.90
49236;DHT22;35067;48.134;8.378;2022-12-18T03:53:47;-6.80;99.90
49236;DHT22;35067;48.134;8.378;2022-12-18T03:55:55;-6.80;99.90
49236;DHT22;35067;48.134;8.378;2022-12-18T03:57:57;-6.90;99.90
49236;DHT22;35067;48.134;8.378;2022-12-18T04:00:08;-6.90;99.90
49236;DHT22;35067;48.134;8.378;2022-12-18T04:02:11;-6.90;99.90
49236;DHT22;35067;48.134;8.378;2022-12-18T04:04:12;-6.90;99.90
49236;DHT22;35067;48.134;8.378;2022-12-18T04:06:15;-6.90;99.90
49236;DHT22;35067;48.134;8.378;2022-12-18T04:08:17;-6.90;99.90
49236;DHT22;35067;48.134;8.378;2022-12-18T04:10:18;-6.80;99.90
49236;DHT22;35067;48.134;8.378;2022-12-18T04:12:19;-6.80;99.90
49236;DHT22;35067;48.134;8.378;2022-12-18T04:14:20;-6.80;99.90
49236;DHT22;35067;48.134;8.378;2022-12-18T04:16:20;-6.80;99.90
49236;DHT22;35067;48.134;8.378;2022-12-18T04:18:21;-6.90;99.90
49236;DHT22;35067;48.134;8.378;2022-12-18T04:20:22;-6.90;99.90
49236;DHT22;35067;48.134;8.378;2022-12-18T04:22:22;-7.00;99.90
49236;DHT22;35067;48.134;8.378;2022-12-18T04:24:23;-6.80;99.90
49236;DHT22;35067;48.134;8.378;2022-12-18T04:26:24;-6.90;99.90
49236;DHT22;35067;48.134;8.378;2022-12-18T04:28:24;-6.80;99.90
49236;DHT22;35067;48.134;8.378;2022-12-18T04:30:25;-6.80;99.90
49236;DHT22;35067;48.134;8.378;2022-12-18T04:32:26;-6.80;99.90
49236;DHT22;35067;48.134;8.378;2022-12-18T04:34:26;-6.80;99.90
49236;DHT22;35067;48.134;8.378;2022-12-18T04:36:27;-6.70;99.90
49236;DHT22;35067;48.134;8.378;2022-12-18T04:38:28;-6.70;99.90
49236;DHT22;35067;48.134;8.378;2022-12-18T04:40:28;-6.80;99.90
49236;DHT22;35067;48.134;8.378;2022-12-18T04:42:29;-6.80;99.90
49236;DHT22;35067;48.134;8.378;2022-12-18T04:44:30;-6.80;99.90
49236;DHT22;35067;48.134;8.378;2022-12-18T04:46:30;-6.70;99.90
49236;DHT22;35067;48.134;8.378;2022-12-18T04:48:31;-6.70;99.90
49236;DHT22;35067;48.134;8.378;2022-12-18T04:50:32;-6.70;99.90
49236;DHT22;35067;48.134;8.378;2022-12-18T04:52:33;-6.70;99.90
49236;DHT22;35067;48.134;8.378;2022-12-18T04:54:34;-6.70;99.90
49236;DHT22;35067;48.134;8.378;2022-12-18T04:56:34;-6.70;99.90
49236;DHT22;35067;48.134;8.378;2022-12-18T04:58:36;-6.70;99.90
49236;DHT22;35067;48.134;8.378;2022-12-18T05:00:37;-6.70;99.90
49236;DHT22;35067;48.134;8.378;2022-12-18T05:02:38;-6.80;99.90
49236;DHT22;35067;48.134;8.378;2022-12-18T05:04:39;-6.80;99.90
49236;DHT22;35067;48.134;8.378;2022-12-18T05:06:39;-6.80;99.90
49236;DHT22;35067;48.134;8.378;2022-12-18T05:08:40;-6.90;99.90
49236;DHT22;35067;48.134;8.378;2022-12-18T05:10:41;-6.80;99.90
49236;DHT22;35067;48.134;8.378;2022-12-18T05:12:41;-6.90;99.90
49236;DHT22;35067;48.134;8.378;2022-12-18T05:15:00;-6.90;99.90
49236;DHT22;35067;48.134;8.378;2022-12-18T05:17:01;-6.90;99.90
49236;DHT22;35067;48.134;8.378;2022-12-18T05:19:01;-7.00;99.90
49236;DHT22;35067;48.134;8.378;2022-12-18T05:21:03;-6.90;99.90
49236;DHT22;35067;48.134;8.378;2022-12-18T05:23:03;-6.90;99.90
49236;DHT22;35067;48.134;8.378;2022-12-18T05:25:04;-7.00;99.90
49236;DHT22;35067;48.134;8.378;2022-12-18T05:27:05;-6.90;99.90
49236;DHT22;35067;48.134;8.378;2022-12-18T05:29:06;-6.80;99.90
49236;DHT22;35067;48.134;8.378;2022-12-18T05:31:06;-6.90;99.90
49236;DHT22;35067;48.134;8.378;2022-12-18T05:33:07;-7.00;99.90
49236;DHT22;35067;48.134;8.378;2022-12-18T05:35:09;-6.90;99.90
49236;DHT22;35067;48.134;8.378;2022-12-18T05:37:11;-6.90;99.90
49236;DHT22;35067;48.134;8.378;2022-12-18T05:39:11;-7.00;99.90
49236;DHT22;35067;48.134;8.378;2022-12-18T05:41:12;-6.90;99.90
49236;DHT22;35067;48.134;8.378;2022-12-18T05:43:13;-7.00;99.90
49236;DHT22;35067;48.134;8.378;2022-12-18T05:45:14;-6.90;99.90
49236;DHT22;35067;48.134;8.378;2022-12-18T05:47:14;-6.90;99.90
49236;DHT22;35067;48.134;8.378;2022-12-18T05:49:15;-6.90;99.90
49236;DHT22;35067;48.134;8.378;2022-12-18T05:51:17;-6.90;99.90
49236;DHT22;35067;48.134;8.378;2022-12-18T05:53:20;-6.90;99.90
49236;DHT22;35067;48.134;8.378;2022-12-18T05:55:21;-6.90;99.90
49236;DHT22;35067;48.134;8.378;2022-12-18T05:57:21;-6.90;99.90
49236;DHT22;35067;48.134;8.378;2022-12-18T05:59:22;-6.90;99.90
49236;DHT22;35067;48.134;8.378;2022-12-18T06:01:25;-6.90;99.90
49236;DHT22;35067;48.134;8.378;2022-12-18T06:03:26;-6.80;99.90
49236;DHT22;35067;48.134;8.378;2022-12-18T06:05:27;-7.00;99.90
49236;DHT22;35067;48.134;8.378;2022-12-18T06:07:28;-6.90;99.90
49236;DHT22;35067;48.134;8.378;2022-12-18T06:09:29;-6.90;99.90
49236;DHT22;35067;48.134;8.378;2022-12-18T06:11:29;-6.90;99.90
49236;DHT22;35067;48.134;8.378;2022-12-18T06:13:30;-6.90;99.90
49236;DHT22;35067;48.134;8.378;2022-12-18T06:15:31;-6.90;99.90
49236;DHT22;35067;48.134;8.378;2022-12-18T06:17:32;-6.80;99.90
49236;DHT22;35067;48.134;8.378;2022-12-18T06:19:34;-6.90;99.90
49236;DHT22;35067;48.134;8.378;2022-12-18T06:21:35;-6.90;99.90
49236;DHT22;35067;48.134;8.378;2022-12-18T06:23:36;-7.00;99.90
49236;DHT22;35067;48.134;8.378;2022-12-18T06:25:39;-6.90;99.90
49236;DHT22;35067;48.134;8.378;2022-12-18T06:27:40;-6.90;99.90
49236;DHT22;35067;48.134;8.378;2022-12-18T06:29:40;-6.90;99.90
49236;DHT22;35067;48.134;8.378;2022-12-18T06:31:41;-6.90;99.90
49236;DHT22;35067;48.134;8.378;2022-12-18T06:33:42;-6.90;99.90
49236;DHT22;35067;48.134;8.378;2022-12-18T06:35:43;-6.90;99.90
49236;DHT22;35067;48.134;8.378;2022-12-18T06:37:43;-6.80;99.90
49236;DHT22;35067;48.134;8.378;2022-12-18T06:39:44;-6.90;99.90
49236;DHT22;35067;48.134;8.378;2022-12-18T06:41:44;-6.80;99.90
49236;DHT22;35067;48.134;8.378;2022-12-18T06:43:45;-6.80;99.90
49236;DHT22;35067;48.134;8.378;2022-12-18T06:45:46;-6.80;99.90
49236;DHT22;35067;48.134;8.378;2022-12-18T06:47:52;-6.80;99.90
49236;DHT22;35067;48.134;8.378;2022-12-18T06:49:53;-7.00;99.90
49236;DHT22;35067;48.134;8.378;2022-12-18T06:51:54;-6.90;99.90
49236;DHT22;35067;48.134;8.378;2022-12-18T06:53:55;-6.80;99.90
49236;DHT22;35067;48.134;8.378;2022-12-18T06:56:06;-6.90;99.90
49236;DHT22;35067;48.134;8.378;2022-12-18T06:58:07;-6.90;99.90
49236;DHT22;35067;48.134;8.378;2022-12-18T07:00:08;-6.90;99.90
49236;DHT22;35067;48.134;8.378;2022-12-18T07:02:12;-6.90;99.90
49236;DHT22;35067;48.134;8.378;2022-12-18T07:04:13;-6.90;99.90
49236;DHT22;35067;48.134;8.378;2022-12-18T07:06:16;-6.90;99.90
49236;DHT22;35067;48.134;8.378;2022-12-18T07:08:19;-6.90;99.90
49236;DHT22;35067;48.134;8.378;2022-12-18T07:10:19;-7.00;99.90
49236;DHT22;35067;48.134;8.378;2022-12-18T07:12:20;-6.90;99.90
49236;DHT22;35067;48.134;8.378;2022-12-18T07:14:21;-6.90;99.90
49236;DHT22;35067;48.134;8.378;2022-12-18T07:16:22;-6.90;99.90
49236;DHT22;35067;48.134;8.378;2022-12-18T07:18:22;-6.90;99.90
49236;DHT22;35067;48.134;8.378;2022-12-18T07:20:23;-6.90;99.90
49236;DHT22;35067;48.134;8.378;2022-12-18T07:22:25;-6.90;99.90
49236;DHT22;35067;48.134;8.378;2022-12-18T07:24:26;-6.80;99.90
49236;DHT22;35067;48.134;8.378;2022-12-18T07:26:27;-6.80;99.90
49236;DHT22;35067;48.134;8.378;2022-12-18T07:28:27;-6.70;99.90
49236;DHT22;35067;48.134;8.378;2022-12-18T07:30:28;-6.70;99.90
49236;DHT22;35067;48.134;8.378;2022-12-18T07:32:30;-6.80;99.90
49236;DHT22;35067;48.134;8.378;2022-12-18T07:34:31;-6.70;99.90
49236;DHT22;35067;48.134;8.378;2022-12-18T07:36:31;-6.60;99.90
49236;DHT22;35067;48.134;8.378;2022-12-18T07:38:33;-6.50;99.90
49236;DHT22;35067;48.134;8.378;2022-12-18T07:40:35;-6.60;99.90
49236;DHT22;35067;48.134;8.378;2022-12-18T07:42:35;-6.60;99.90
49236;DHT22;35067;48.134;8.378;2022-12-18T07:44:37;-6.50;99.90
49236;DHT22;35067;48.134;8.378;2022-12-18T07:46:38;-6.60;99.90
49236;DHT22;35067;48.134;8.378;2022-12-18T07:48:39;-6.50;99.90
49236;DHT22;35067;48.134;8.378;2022-12-18T07:50:40;-6.60;99.90
49236;DHT22;35067;48.134;8.378;2022-12-18T07:52:41;-6.50;99.90
49236;DHT22;35067;48.134;8.378;2022-12-18T07:54:42;-6.50;99.90
49236;DHT22;35067;48.134;8.378;2022-12-18T07:56:43;-6.50;99.90
49236;DHT22;35067;48.134;8.378;2022-12-18T07:58:43;-6.50;99.90
49236;DHT22;35067;48.134;8.378;2022-12-18T08:00:44;-6.50;99.90
49236;DHT22;35067;48.134;8.378;2022-12-18T08:02:45;-6.50;99.90
49236;DHT22;35067;48.134;8.378;2022-12-18T08:04:46;-6.50;99.90
49236;DHT22;35067;48.134;8.378;2022-12-18T08:06:47;-6.40;99.90
49236;DHT22;35067;48.134;8.378;2022-12-18T08:08:48;-6.30;99.90
49236;DHT22;35067;48.134;8.378;2022-12-18T08:10:48;-6.30;99.90
49236;DHT22;35067;48.134;8.378;2022-12-18T08:12:50;-6.30;99.90
49236;DHT22;35067;48.134;8.378;2022-12-18T08:14:51;-6.30;99.90
49236;DHT22;35067;48.134;8.378;2022-12-18T08:16:52;-6.40;99.90
49236;DHT22;35067;48.134;8.378;2022-12-18T08:18:53;-6.30;99.90
49236;DHT22;35067;48.134;8.378;2022-12-18T08:20:55;-6.30;99.90
49236;DHT22;35067;48.134;8.378;2022-12-18T08:22:56;-6.30;99.90
49236;DHT22;35067;48.134;8.378;2022-12-18T08:24:58;-6.30;99.90
49236;DHT22;35067;48.134;8.378;2022-12-18T08:26:58;-6.10;99.90
49236;DHT22;35067;48.134;8.378;2022-12-18T08:28:59;-6.10;99.90
49236;DHT22;35067;48.134;8.378;2022-12-18T08:31:00;-6.10;99.90
49236;DHT22;35067;48.134;8.378;2022-12-18T08:33:01;-6.10;99.90
49236;DHT22;35067;48.134;8.378;2022-12-18T08:35:03;-6.00;99.90
49236;DHT22;35067;48.134;8.378;2022-12-18T08:37:04;-6.10;99.90
49236;DHT22;35067;48.134;8.378;2022-12-18T08:39:04;-6.00;99.90
49236;DHT22;35067;48.134;8.378;2022-12-18T08:41:10;-6.00;99.90
49236;DHT22;35067;48.134;8.378;2022-12-18T08:43:12;-6.10;99.90
49236;DHT22;35067;48.134;8.378;2022-12-18T08:45:31;-6.00;99.90
49236;DHT22;35067;48.134;8.378;2022-12-18T08:47:32;-5.90;99.90
49236;DHT22;35067;48.134;8.378;2022-12-18T08:49:33;-5.70;99.90
49236;DHT22;35067;48.134;8.378;2022-12-18T08:51:35;-5.70;99.90
49236;DHT22;35067;48.134;8.378;2022-12-18T08:53:36;-5.60;99.90
49236;DHT22;35067;48.134;8.378;2022-12-18T08:55:37;-5.60;99.90
49236;DHT22;35067;48.134;8.378;2022-12-18T08:57:38;-5.50;99.90
49236;DHT22;35067;48.134;8.378;2022-12-18T08:59:39;-5.40;99.90
49236;DHT22;35067;48.134;8.378;2022-12-18T09:01:39;-5.30;99.90
49236;DHT22;35067;48.134;8.378;2022-12-18T09:03:40;-5.20;99.90
49236;DHT22;35067;48.134;8.378;2022-12-18T09:05:41;-5.10;99.90
49236;DHT22;35067;48.134;8.378;2022-12-18T09:07:41;-5.00;99.90
49236;DHT22;35067;48.134;8.378;2022-12-18T09:09:42;-5.00;99.90
49236;DHT22;35067;48.134;8.378;2022-12-18T09:11:43;-4.90;99.90
49236;DHT22;35067;48.134;8.378;2022-12-18T09:13:43;-4.90;99.90
49236;DHT22;35067;48.134;8.378;2022-12-18T09:15:46;-4.80;99.90
49236;DHT22;35067;48.134;8.378;2022-12-18T09:17:48;-4.70;99.90
49236;DHT22;35067;48.134;8.378;2022-12-18T09:19:50;-4.60;99.90
49236;DHT22;35067;48.134;8.378;2022-12-18T09:21:51;-4.60;99.90
49236;DHT22;35067;48.134;8.378;2022-12-18T09:23:53;-4.50;99.90
49236;DHT22;35067;48.134;8.378;2022-12-18T09:25:59;-4.40;99.90
49236;DHT22;35067;48.134;8.378;2022-12-18T09:28:00;-3.90;99.90
49236;DHT22;35067;48.134;8.378;2022-12-18T09:30:01;-3.50;99.90
49236;DHT22;35067;48.134;8.378;2022-12-18T09:32:03;-3.40;99.90
49236;DHT22;35067;48.134;8.378;2022-12-18T09:34:03;-3.10;99.90
49236;DHT22;35067;48.134;8.378;2022-12-18T09:36:06;-3.00;99.90
49236;DHT22;35067;48.134;8.378;2022-12-18T09:38:14;-2.80;99.90
49236;DHT22;35067;48.134;8.378;2022-12-18T09:40:19;-3.00;99.90
49236;DHT22;35067;48.134;8.378;2022-12-18T09:42:22;-3.00;99.90
49236;DHT22;35067;48.134;8.378;2022-12-18T09:44:35;-3.20;99.90
49236;DHT22;35067;48.134;8.378;2022-12-18T09:46:40;-2.90;99.90
49236;DHT22;35067;48.134;8.378;2022-12-18T09:48:49;-2.80;99.70
49236;DHT22;35067;48.134;8.378;2022-12-18T09:50:56;-2.60;99.90
49236;DHT22;35067;48.134;8.378;2022-12-18T09:53:04;-2.30;99.90
49236;DHT22;35067;48.134;8.378;2022-12-18T09:55:11;-2.30;97.20
49236;DHT22;35067;48.134;8.378;2022-12-18T09:57:24;-2.20;98.50
49236;DHT22;35067;48.134;8.378;2022-12-18T09:59:38;-2.00;97.90
49236;DHT22;35067;48.134;8.378;2022-12-18T10:01:42;-2.20;99.20
49236;DHT22;35067;48.134;8.378;2022-12-18T10:03:42;-1.90;98.20
49236;DHT22;35067;48.134;8.378;2022-12-18T10:08:35;-0.80;99.00
49236;DHT22;35067;48.134;8.378;2022-12-18T10:10:47;-0.60;95.00
49236;DHT22;35067;48.134;8.378;2022-12-18T10:19:56;0.80;91.90
49236;DHT22;35067;48.134;8.378;2022-12-18T10:22:21;0.60;91.10
49236;DHT22;35067;48.134;8.378;2022-12-18T10:25:02;0.80;92.80
49236;DHT22;35067;48.134;8.378;2022-12-18T10:27:26;0.80;91.00
49236;DHT22;35067;48.134;8.378;2022-12-18T10:29:27;0.80;92.90
49236;DHT22;35067;48.134;8.378;2022-12-18T10:31:28;1.00;89.70
49236;DHT22;35067;48.134;8.378;2022-12-18T10:33:30;1.30;86.70
49236;DHT22;35067;48.134;8.378;2022-12-18T10:35:32;0.90;86.40
49236;DHT22;35067;48.134;8.378;2022-12-18T10:37:32;0.80;91.00
49236;DHT22;35067;48.134;8.378;2022-12-18T10:39:33;1.20;92.40
49236;DHT22;35067;48.134;8.378;2022-12-18T10:41:34;1.70;87.30
49236;DHT22;35067;48.134;8.378;2022-12-18T10:43:39;2.00;86.30
49236;DHT22;35067;48.134;8.378;2022-12-18T10:45:42;1.70;81.00
49236;DHT22;35067;48.134;8.378;2022-12-18T10:47:45;2.00;84.20
49236;DHT22;35067;48.134;8.378;2022-12-18T10:49:51;1.10;85.80
49236;DHT22;35067;48.134;8.378;2022-12-18T10:54:23;1.60;85.40
49236;DHT22;35067;48.134;8.378;2022-12-18T10:56:27;2.10;86.90
49236;DHT22;35067;48.134;8.378;2022-12-18T10:58:29;2.80;82.40
49236;DHT22;35067;48.134;8.378;2022-12-18T11:00:34;2.60;78.20
49236;DHT22;35067;48.134;8.378;2022-12-18T11:02:38;3.10;79.50
49236;DHT22;35067;48.134;8.378;2022-12-18T11:04:50;3.40;73.00
49236;DHT22;35067;48.134;8.378;2022-12-18T11:07:06;3.20;79.00
49236;DHT22;35067;48.134;8.378;2022-12-18T11:09:22;3.50;80.10
49236;DHT22;35067;48.134;8.378;2022-12-18T11:11:24;3.80;75.00
49236;DHT22;35067;48.134;8.378;2022-12-18T11:13:28;4.40;71.60
49236;DHT22;35067;48.134;8.378;2022-12-18T11:15:30;5.40;69.50
49236;DHT22;35067;48.134;8.378;2022-12-18T11:17:33;6.30;64.00
49236;DHT22;35067;48.134;8.378;2022-12-18T11:19:37;6.30;59.80
49236;DHT22;35067;48.134;8.378;2022-12-18T11:21:40;5.60;62.50
49236;DHT22;35067;48.134;8.378;2022-12-18T11:23:53;4.70;66.00
49236;DHT22;35067;48.134;8.378;2022-12-18T11:26:01;4.00;68.50
49236;DHT22;35067;48.134;8.378;2022-12-18T11:28:27;3.30;73.80
49236;DHT22;35067;48.134;8.378;2022-12-18T11:30:37;4.00;72.00
49236;DHT22;35067;48.134;8.378;2022-12-18T11:32:40;4.60;70.00
49236;DHT22;35067;48.134;8.378;2022-12-18T11:34:50;5.00;65.70
49236;DHT22;35067;48.134;8.378;2022-12-18T11:36:56;4.90;68.70
49236;DHT22;35067;48.134;8.378;2022-12-18T11:39:02;4.10;67.50
49236;DHT22;35067;48.134;8.378;2022-12-18T11:44:01;3.90;69.30
49236;DHT22;35067;48.134;8.378;2022-12-18T11:46:10;3.50;73.30
49236;DHT22;35067;48.134;8.378;2022-12-18T11:48:24;3.70;71.60
49236;DHT22;35067;48.134;8.378;2022-12-18T11:50:46;3.90;72.40
49236;DHT22;35067;48.134;8.378;2022-12-18T11:52:51;4.60;69.80
49236;DHT22;35067;48.134;8.378;2022-12-18T11:54:52;5.50;64.80
49236;DHT22;35067;48.134;8.378;2022-12-18T11:57:02;4.20;70.30
49236;DHT22;35067;48.134;8.378;2022-12-18T12:01:48;4.20;71.10
49236;DHT22;35067;48.134;8.378;2022-12-18T12:09:15;4.40;69.70
49236;DHT22;35067;48.134;8.378;2022-12-18T12:17:02;5.00;69.60
49236;DHT22;35067;48.134;8.378;2022-12-18T12:19:22;4.90;67.20
49236;DHT22;35067;48.134;8.378;2022-12-18T12:21:43;4.30;68.40
49236;DHT22;35067;48.134;8.378;2022-12-18T12:26:49;4.20;72.70
49236;DHT22;35067;48.134;8.378;2022-12-18T12:36:29;3.20;76.90
49236;DHT22;35067;48.134;8.378;2022-12-18T12:38:41;3.10;77.80
49236;DHT22;35067;48.134;8.378;2022-12-18T12:40:54;3.20;81.30
49236;DHT22;35067;48.134;8.378;2022-12-18T12:43:12;4.00;74.30
49236;DHT22;35067;48.134;8.378;2022-12-18T12:45:38;3.30;76.40
49236;DHT22;35067;48.134;8.378;2022-12-18T12:47:48;3.70;77.70
49236;DHT22;35067;48.134;8.378;2022-12-18T12:49:50;3.90;74.60
49236;DHT22;35067;48.134;8.378;2022-12-18T12:54:32;3.80;74.60
49236;DHT22;35067;48.134;8.378;2022-12-18T12:56:41;3.90;73.70
49236;DHT22;35067;48.134;8.378;2022-12-18T12:59:10;4.30;72.60
49236;DHT22;35067;48.134;8.378;2022-12-18T13:01:27;4.30;70.00
49236;DHT22;35067;48.134;8.378;2022-12-18T13:08:57;4.30;72.20
49236;DHT22;35067;48.134;8.378;2022-12-18T13:10:59;3.40;75.20
49236;DHT22;35067;48.134;8.378;2022-12-18T13:13:19;3.20;77.30
49236;DHT22;35067;48.134;8.378;2022-12-18T13:15:23;2.70;78.40
49236;DHT22;35067;48.134;8.378;2022-12-18T13:17:29;2.40;81.60
49236;DHT22;35067;48.134;8.378;2022-12-18T13:19:31;2.20;85.00
49236;DHT22;35067;48.134;8.378;2022-12-18T13:21:33;2.70;81.00
49236;DHT22;35067;48.134;8.378;2022-12-18T13:23:41;2.70;81.50
49236;DHT22;35067;48.134;8.378;2022-12-18T13:25:41;2.60;82.70
49236;DHT22;35067;48.134;8.378;2022-12-18T13:29:46;3.10;79.00
49236;DHT22;35067;48.134;8.378;2022-12-18T13:33:50;2.40;82.00
49236;DHT22;35067;48.134;8.378;2022-12-18T13:36:13;2.40;81.00
49236;DHT22;35067;48.134;8.378;2022-12-18T13:38:36;1.90;84.90
49236;DHT22;35067;48.134;8.378;2022-12-18T13:42:50;1.50;89.50
49236;DHT22;35067;48.134;8.378;2022-12-18T13:45:37;1.60;88.50
49236;DHT22;35067;48.134;8.378;2022-12-18T13:47:39;1.90;86.30
49236;DHT22;35067;48.134;8.378;2022-12-18T13:49:44;2.10;83.70
49236;DHT22;35067;48.134;8.378;2022-12-18T13:51:48;1.70;87.90
49236;DHT22;35067;48.134;8.378;2022-12-18T13:56:25;1.20;89.30
49236;DHT22;35067;48.134;8.378;2022-12-18T13:58:30;1.00;91.00
49236;DHT22;35067;48.134;8.378;2022-12-18T14:00:31;1.00;90.70
49236;DHT22;35067;48.134;8.378;2022-12-18T14:02:32;0.70;91.80
49236;DHT22;35067;48.134;8.378;2022-12-18T14:04:35;0.90;91.40
49236;DHT22;35067;48.134;8.378;2022-12-18T14:06:36;0.80;92.50
49236;DHT22;35067;48.134;8.378;2022-12-18T14:08:39;0.80;91.40
49236;DHT22;35067;48.134;8.378;2022-12-18T14:10:42;0.80;91.60
49236;DHT22;35067;48.134;8.378;2022-12-18T14:12:47;0.90;91.40
49236;DHT22;35067;48.134;8.378;2022-12-18T14:14:58;0.60;91.50
49236;DHT22;35067;48.134;8.378;2022-12-18T14:16:59;0.20;93.70